Главная страница
METAR-TAF:

METAR-TAF

Аэропорты :

Aeroflex-Andover Airport

Andover, Нью-Джерси, США

широта: 41-00-32N, долгота: 074-44-12W, высота над уровнем моря: 177 м

Текущие метеонаблюдения

Эта сводка был подготовлена 23 минут назад, в 15:54 UTC
Ветер 6 Узел от юго-западный
Температура 7°C
Влажность 42%
Давление 1023 hPa

METAR: K12N 151554Z AUTO 22006KT 07/M05 A3020 RMK AO1 SLP233 T00671050

Время: 11:17 (16:17 UTC)


TAF: отсутствует

Метеонаблюдения и прогнозы для более 4000 аэропортов (сводки METAR и TAF).

Имеющиеся станции представлены на карте желтыми и красными точками.

Чтобы увидеть название станции, наведите на нее мышь.

Затем щелкните, чтобы увидеть метеонаблюдения и метеопрогнозы.

Управление картой: чтобы увеличить масштаб, щелкните зеленые кнопки с черным крестиком; чтобы уменьшить масштаб, щелкните зеленую кнопку с тире; для просмотра соседних карт щелкайте зеленые стрелки.


METAR-TAF: